Time;durP1;ratioP1;P1;durP2;ratioP2;P2;SDS_P1;SDS_P2;PMS_P1;PMS_P2;Temp;Humidity;BMP_temperature;BMP_pressure;BME280_temperature;BME280_humidity;BME280_pressure;Samples;Min_cycle;Max_cycle;Signal;HPM_P1;HPM_P2
2022/12/19 00:01:34;;;;;;;264.73;144.75;;;-2.20;99.90;;;;;;5040534;28;20268;-77
2022/12/19 00:04:03;;;;;;;246.60;138.13;;;-2.20;99.90;;;;;;5041425;28;20508;-76
2022/12/19 00:06:31;;;;;;;188.82;107.05;;;-2.20;99.90;;;;;;5040550;28;20075;-75
2022/12/19 00:09:00;;;;;;;205.18;116.45;;;-2.30;99.90;;;;;;5040201;28;20041;-78
2022/12/19 00:11:29;;;;;;;247.35;133.32;;;-2.20;99.90;;;;;;5040365;28;20040;-77
2022/12/19 00:13:56;;;;;;;197.52;110.85;;;-2.20;99.90;;;;;;5039897;28;20143;-78
2022/12/19 00:16:25;;;;;;;216.77;121.28;;;-2.20;99.90;;;;;;5039959;28;20114;-77
2022/12/19 00:18:56;;;;;;;220.45;124.03;;;-2.20;99.90;;;;;;5042040;28;20046;-77
2022/12/19 00:21:25;;;;;;;202.65;116.00;;;-2.20;99.90;;;;;;5037834;28;20037;-78
2022/12/19 00:23:53;;;;;;;225.10;126.43;;;-2.30;99.90;;;;;;5041103;28;20102;-76
2022/12/19 00:26:24;;;;;;;193.68;110.68;;;-2.20;99.90;;;;;;5041783;28;20048;-76
2022/12/19 00:28:54;;;;;;;199.45;113.85;;;-2.20;99.90;;;;;;5042626;28;20037;-76
2022/12/19 00:31:23;;;;;;;204.93;113.15;;;-2.20;99.90;;;;;;5056562;28;20050;-77
2022/12/19 00:33:50;;;;;;;201.65;112.30;;;-2.10;99.90;;;;;;5038972;28;20117;-77
2022/12/19 00:36:20;;;;;;;198.32;115.88;;;-2.10;99.90;;;;;;5024404;28;20072;-76
2022/12/19 00:38:48;;;;;;;192.98;107.60;;;-2.10;99.90;;;;;;5040497;28;20045;-77
2022/12/19 00:41:17;;;;;;;214.05;121.40;;;-2.10;99.90;;;;;;5020068;28;20041;-76
2022/12/19 00:43:46;;;;;;;224.95;125.38;;;-2.20;99.90;;;;;;5022378;28;20049;-77
2022/12/19 00:46:16;;;;;;;233.43;132.60;;;-2.20;99.90;;;;;;5040148;28;20048;-78
2022/12/19 00:48:44;;;;;;;266.55;152.45;;;-2.30;99.90;;;;;;5040516;28;20519;-77
2022/12/19 00:51:14;;;;;;;317.23;182.63;;;-2.30;99.90;;;;;;5024709;28;20093;-75
2022/12/19 00:53:43;;;;;;;305.40;176.65;;;-2.40;99.90;;;;;;5023927;28;20041;-76
2022/12/19 00:56:13;;;;;;;299.88;171.07;;;-2.50;99.90;;;;;;5026270;28;20492;-77
2022/12/19 00:58:40;;;;;;;254.00;139.52;;;-2.50;99.90;;;;;;5043875;28;20100;-78
2022/12/19 01:01:12;;;;;;;266.88;146.57;;;-2.50;99.90;;;;;;5053124;28;20049;-76
2022/12/19 01:03:40;;;;;;;274.92;153.00;;;-2.40;99.90;;;;;;5053148;28;20043;-76
2022/12/19 01:06:08;;;;;;;259.40;144.32;;;-2.40;99.90;;;;;;5040533;28;20109;-76
2022/12/19 01:08:35;;;;;;;259.88;145.82;;;-2.50;99.90;;;;;;5039785;28;20049;-78
2022/12/19 01:11:03;;;;;;;263.48;150.68;;;-2.50;99.90;;;;;;5039431;28;20083;-76
2022/12/19 01:13:32;;;;;;;259.05;146.63;;;-2.50;99.90;;;;;;5021304;28;20053;-78
2022/12/19 01:16:03;;;;;;;258.15;146.50;;;-2.60;99.90;;;;;;5040626;28;20036;-76
2022/12/19 01:18:32;;;;;;;254.75;145.00;;;-2.60;99.90;;;;;;5025684;28;20080;-77
2022/12/19 01:21:01;;;;;;;241.95;140.98;;;-2.70;99.90;;;;;;5029767;28;20128;-76
2022/12/19 01:23:29;;;;;;;245.48;138.65;;;-2.70;99.90;;;;;;5036821;28;20033;-76
2022/12/19 01:25:57;;;;;;;249.23;144.05;;;-2.70;99.90;;;;;;5040976;28;20080;-75
2022/12/19 01:28:24;;;;;;;262.15;148.20;;;-2.70;99.90;;;;;;5022141;28;20053;-77
2022/12/19 01:30:53;;;;;;;217.30;129.20;;;-2.70;99.90;;;;;;5038460;28;20036;-77
2022/12/19 01:33:24;;;;;;;247.98;141.43;;;-2.80;99.90;;;;;;5039000;28;20128;-77
2022/12/19 01:35:53;;;;;;;240.52;140.43;;;-2.70;99.90;;;;;;5039337;28;20037;-78
2022/12/19 01:38:21;;;;;;;243.73;138.77;;;-2.80;99.90;;;;;;5045520;28;20172;-77
2022/12/19 01:40:52;;;;;;;239.23;137.82;;;-2.80;99.90;;;;;;5039138;28;20041;-78
2022/12/19 01:43:20;;;;;;;249.82;141.55;;;-2.80;99.90;;;;;;5038173;28;20037;-77
2022/12/19 01:45:54;;;;;;;245.30;141.43;;;-2.80;99.90;;;;;;5040137;28;20095;-77
2022/12/19 01:48:27;;;;;;;235.00;133.20;;;-2.90;99.90;;;;;;5039947;28;20046;-77
2022/12/19 01:50:59;;;;;;;213.27;126.97;;;-2.90;99.90;;;;;;5020066;28;20443;-76
2022/12/19 01:53:29;;;;;;;217.52;126.20;;;-2.80;99.90;;;;;;5038507;28;20136;-77
2022/12/19 01:55:57;;;;;;;228.85;131.38;;;-2.90;99.90;;;;;;5041560;28;20123;-77
2022/12/19 01:58:25;;;;;;;224.60;127.00;;;-2.90;99.90;;;;;;5036615;28;20048;-77
2022/12/19 02:00:53;;;;;;;219.40;125.18;;;-2.90;99.90;;;;;;5020177;28;20045;-75
2022/12/19 02:03:25;;;;;;;226.70;127.35;;;-2.90;99.90;;;;;;5038842;28;20040;-77
2022/12/19 02:05:53;;;;;;;218.38;123.40;;;-3.00;99.90;;;;;;5022492;28;20049;-76
2022/12/19 02:08:23;;;;;;;206.93;120.72;;;-3.00;99.90;;;;;;5020394;28;20140;-76
2022/12/19 02:10:51;;;;;;;200.55;114.70;;;-3.00;99.90;;;;;;5041670;28;20045;-77
2022/12/19 02:13:19;;;;;;;212.52;120.93;;;-3.00;99.90;;;;;;5025064;28;20045;-75
2022/12/19 02:15:54;;;;;;;192.75;110.15;;;-3.00;99.90;;;;;;5044055;28;20040;-77
2022/12/19 02:18:33;;;;;;;194.88;117.55;;;-3.00;99.90;;;;;;5025239;28;20103;-76
2022/12/19 02:21:44;;;;;;;195.07;111.97;;;-3.00;99.90;;;;;;5022325;28;20085;-77
2022/12/19 02:24:37;;;;;;;186.98;108.95;;;-3.10;99.90;;;;;;4982247;28;20049;-77
2022/12/19 02:27:37;;;;;;;179.43;101.15;;;-3.10;99.90;;;;;;4980640;28;20054;-77
2022/12/19 02:30:11;;;;;;;164.05;95.95;;;-3.10;99.90;;;;;;5037301;28;20062;-77
2022/12/19 02:33:03;;;;;;;153.88;89.68;;;-3.20;99.90;;;;;;5024904;28;20045;-75
2022/12/19 02:35:40;;;;;;;160.23;94.55;;;-3.20;99.90;;;;;;5025461;28;20419;-78
2022/12/19 02:38:15;;;;;;;167.10;99.03;;;-3.20;99.90;;;;;;5011767;28;20052;-76
2022/12/19 02:40:46;;;;;;;156.13;92.78;;;-3.20;99.90;;;;;;5023051;28;20517;-75
2022/12/19 02:43:18;;;;;;;151.75;86.18;;;-3.20;99.90;;;;;;5023311;28;20053;-77
2022/12/19 02:45:46;;;;;;;158.30;91.68;;;-3.20;99.90;;;;;;5023462;28;20137;-77
2022/12/19 02:48:16;;;;;;;157.57;92.63;;;-3.20;99.90;;;;;;5007251;28;20033;-76
2022/12/19 02:50:46;;;;;;;156.20;89.72;;;-3.20;99.90;;;;;;5004698;28;20041;-76
2022/12/19 02:53:15;;;;;;;163.15;94.75;;;-3.20;99.90;;;;;;5003773;28;20045;-77
2022/12/19 02:55:48;;;;;;;163.07;92.05;;;-3.30;99.90;;;;;;5023844;28;20087;-78
2022/12/19 02:58:29;;;;;;;167.95;96.10;;;-3.30;99.90;;;;;;5020700;28;20053;-77
2022/12/19 03:01:03;;;;;;;172.77;100.38;;;-3.20;99.90;;;;;;5028083;28;20480;-77
2022/12/19 03:03:44;;;;;;;173.52;100.05;;;-3.20;99.90;;;;;;5023278;28;20038;-77
2022/12/19 03:06:23;;;;;;;174.43;102.63;;;-3.20;99.90;;;;;;5008339;28;20046;-76
2022/12/19 03:08:58;;;;;;;169.25;96.00;;;-3.30;99.90;;;;;;5005415;28;20045;-76
2022/12/19 03:11:29;;;;;;;165.63;98.68;;;-3.30;99.90;;;;;;5003945;28;20041;-75
2022/12/19 03:14:00;;;;;;;166.45;94.63;;;-3.20;99.90;;;;;;5022905;28;20046;-76
2022/12/19 03:16:28;;;;;;;166.40;95.10;;;-3.20;99.90;;;;;;5005805;28;20608;-76
2022/12/19 03:18:57;;;;;;;153.43;89.00;;;-3.20;99.90;;;;;;5006583;28;20045;-75
2022/12/19 03:21:32;;;;;;;149.23;89.43;;;-3.20;99.90;;;;;;5021024;28;20049;-76
2022/12/19 03:24:00;;;;;;;150.88;86.63;;;-3.10;99.90;;;;;;5020854;28;20088;-77
2022/12/19 03:26:32;;;;;;;163.82;90.18;;;-3.10;99.90;;;;;;5022637;28;20496;-76
2022/12/19 03:29:05;;;;;;;145.15;85.38;;;-3.00;99.90;;;;;;5020190;28;20451;-78
2022/12/19 03:31:35;;;;;;;159.80;91.75;;;-3.00;99.90;;;;;;5021525;28;20038;-76
2022/12/19 03:34:10;;;;;;;157.48;87.82;;;-2.90;99.90;;;;;;5021210;28;20617;-77
2022/12/19 03:36:40;;;;;;;137.73;81.25;;;-2.80;99.90;;;;;;5021054;28;20034;-77
2022/12/19 03:39:09;;;;;;;131.98;76.72;;;-2.70;99.90;;;;;;5033143;28;20050;-76
2022/12/19 03:44:27;;;;;;;122.25;71.90;;;-2.70;99.90;;;;;;5043255;28;20481;-77
2022/12/19 03:47:00;;;;;;;114.20;64.47;;;-2.70;99.90;;;;;;5042368;28;20052;-77
2022/12/19 03:49:29;;;;;;;100.68;58.70;;;-2.60;99.90;;;;;;5041003;28;20048;-77
2022/12/19 03:52:12;;;;;;;106.63;63.55;;;-2.60;99.90;;;;;;5039375;28;20088;-77
2022/12/19 03:54:43;;;;;;;113.28;64.85;;;-2.60;99.90;;;;;;5040634;28;20508;-76
2022/12/19 03:57:21;;;;;;;118.13;65.97;;;-2.60;99.90;;;;;;5040005;28;20080;-75
2022/12/19 03:59:51;;;;;;;112.93;69.10;;;-2.70;99.90;;;;;;5042207;28;20029;-77
2022/12/19 04:02:21;;;;;;;120.25;66.13;;;-2.70;99.90;;;;;;5041265;28;20496;-76
2022/12/19 04:04:54;;;;;;;134.82;78.03;;;-2.70;99.90;;;;;;5045332;28;20041;-76
2022/12/19 04:07:22;;;;;;;107.53;63.10;;;-2.70;99.90;;;;;;5042401;28;20111;-77
2022/12/19 04:09:50;;;;;;;112.07;63.58;;;-2.70;99.90;;;;;;5022732;28;20504;-77
2022/12/19 04:12:21;;;;;;;106.72;63.08;;;-2.60;99.90;;;;;;5039018;28;20037;-75
2022/12/19 04:14:49;;;;;;;106.45;60.55;;;-2.50;99.90;;;;;;5022443;28;20523;-76
2022/12/19 04:17:25;;;;;;;112.10;63.05;;;-2.50;99.90;;;;;;5036864;28;20073;-78
2022/12/19 04:20:21;;;;;;;110.57;63.53;;;-2.50;99.90;;;;;;5035628;28;20048;-78
2022/12/19 04:22:54;;;;;;;116.05;68.03;;;-2.40;99.90;;;;;;5036258;28;20480;-80
2022/12/19 04:25:29;;;;;;;119.65;70.82;;;-2.30;99.90;;;;;;5039621;28;20041;-79
2022/12/19 04:28:00;;;;;;;110.25;65.07;;;-2.30;99.90;;;;;;5040360;28;20052;-79
2022/12/19 04:30:28;;;;;;;103.10;61.15;;;-2.30;99.90;;;;;;5038752;28;20123;-78
2022/12/19 04:32:56;;;;;;;94.22;54.53;;;-2.30;99.90;;;;;;5021679;28;20041;-80
2022/12/19 04:35:24;;;;;;;92.45;51.30;;;-2.20;99.90;;;;;;5039705;28;20121;-79
2022/12/19 04:37:52;;;;;;;89.70;48.53;;;-2.20;99.90;;;;;;5040245;28;20439;-79
2022/12/19 04:40:19;;;;;;;82.63;48.38;;;-2.10;99.90;;;;;;5040239;28;20087;-79
2022/12/19 04:42:47;;;;;;;84.10;48.47;;;-2.00;99.90;;;;;;5039564;28;20045;-79
2022/12/19 04:45:17;;;;;;;83.32;48.95;;;-2.00;99.90;;;;;;5037803;28;20120;-78
2022/12/19 04:47:44;;;;;;;89.78;49.92;;;-1.90;99.90;;;;;;5039334;28;20558;-78
2022/12/19 04:50:11;;;;;;;87.40;50.55;;;-1.90;99.90;;;;;;5036837;28;20069;-79
2022/12/19 04:52:40;;;;;;;88.50;50.10;;;-1.90;99.90;;;;;;5039057;28;20037;-79
2022/12/19 04:55:08;;;;;;;93.13;53.83;;;-1.80;99.90;;;;;;5046792;28;20130;-79
2022/12/19 04:57:36;;;;;;;95.45;53.38;;;-1.70;99.90;;;;;;5041071;28;20467;-79
2022/12/19 05:00:07;;;;;;;95.60;55.78;;;-1.60;99.90;;;;;;5041981;28;20033;-79
2022/12/19 05:02:34;;;;;;;107.65;63.17;;;-1.60;99.90;;;;;;5041098;28;20496;-78
2022/12/19 05:05:06;;;;;;;122.57;66.70;;;-1.60;99.90;;;;;;5039437;28;20041;-78
2022/12/19 05:07:34;;;;;;;116.93;66.82;;;-1.60;99.90;;;;;;5040615;28;20049;-79
2022/12/19 05:10:02;;;;;;;120.05;67.68;;;-1.60;99.90;;;;;;5040133;28;20053;-77
2022/12/19 05:12:30;;;;;;;123.60;67.63;;;-1.60;99.90;;;;;;5039315;28;20049;-78
2022/12/19 05:14:57;;;;;;;122.22;68.32;;;-1.60;99.90;;;;;;5038680;28;20155;-79
2022/12/19 05:17:24;;;;;;;128.25;67.78;;;-1.50;99.90;;;;;;5040616;28;20045;-77
2022/12/19 05:19:52;;;;;;;115.97;62.97;;;-1.50;99.90;;;;;;5039731;28;20041;-77
2022/12/19 05:22:19;;;;;;;120.00;64.07;;;-1.60;99.90;;;;;;5037442;28;20094;-79
2022/12/19 05:24:46;;;;;;;133.40;71.88;;;-1.60;99.90;;;;;;5038979;28;20049;-78
2022/12/19 05:27:15;;;;;;;138.88;74.28;;;-1.60;99.90;;;;;;5038398;28;20092;-79
2022/12/19 05:29:42;;;;;;;155.35;80.05;;;-1.50;99.90;;;;;;5021521;28;20042;-78
2022/12/19 05:32:09;;;;;;;172.93;87.10;;;-1.60;99.90;;;;;;5040799;28;20490;-78
2022/12/19 05:34:37;;;;;;;146.15;74.00;;;-1.50;99.90;;;;;;5038960;28;20045;-78
2022/12/19 05:37:04;;;;;;;162.18;82.95;;;-1.50;99.90;;;;;;5038480;28;20037;-78
2022/12/19 05:39:31;;;;;;;150.80;75.97;;;-1.60;99.90;;;;;;5037450;28;20045;-78
2022/12/19 05:41:58;;;;;;;163.32;84.45;;;-1.60;99.90;;;;;;5037936;28;20045;-79
2022/12/19 05:44:27;;;;;;;179.60;84.63;;;-1.60;99.90;;;;;;5039973;28;20095;-78
2022/12/19 05:46:54;;;;;;;167.60;75.45;;;-1.70;99.90;;;;;;5038635;28;20037;-79
2022/12/19 05:49:22;;;;;;;162.70;76.97;;;-1.70;99.90;;;;;;5021772;28;20094;-78
2022/12/19 05:51:49;;;;;;;212.77;97.88;;;-1.60;99.90;;;;;;5039035;28;20069;-80
2022/12/19 05:54:16;;;;;;;201.52;94.53;;;-1.60;99.90;;;;;;5044702;28;20515;-77
2022/12/19 05:56:43;;;;;;;213.50;101.13;;;-1.60;99.90;;;;;;5047125;28;20036;-77
2022/12/19 05:59:11;;;;;;;184.35;87.68;;;-1.60;99.90;;;;;;5046626;28;20045;-80
2022/12/19 06:01:39;;;;;;;172.32;77.78;;;-1.60;99.90;;;;;;5050499;28;20069;-79
2022/12/19 06:04:08;;;;;;;165.35;75.93;;;-1.60;99.90;;;;;;5051961;28;20037;-80
2022/12/19 06:06:36;;;;;;;153.32;71.22;;;-1.60;99.90;;;;;;5041055;28;20052;-78
2022/12/19 06:09:03;;;;;;;182.65;80.88;;;-1.50;99.90;;;;;;5040832;28;20125;-78
2022/12/19 06:11:30;;;;;;;177.02;77.68;;;-1.50;99.90;;;;;;5036344;28;20065;-79
2022/12/19 06:13:58;;;;;;;188.85;83.25;;;-1.50;99.90;;;;;;5038773;28;20040;-78
2022/12/19 06:16:25;;;;;;;201.68;90.57;;;-1.40;99.90;;;;;;5039614;28;20069;-77
2022/12/19 06:18:54;;;;;;;191.70;85.55;;;-1.40;99.90;;;;;;5040259;28;20166;-80
2022/12/19 06:21:23;;;;;;;159.18;75.55;;;-1.40;99.90;;;;;;5045160;28;20060;-78
2022/12/19 06:23:51;;;;;;;150.40;72.03;;;-1.40;99.90;;;;;;5039389;28;20118;-79
2022/12/19 06:26:20;;;;;;;141.55;69.05;;;-1.30;99.90;;;;;;5038113;28;20120;-77
2022/12/19 06:28:47;;;;;;;134.13;62.55;;;-1.20;99.90;;;;;;5040050;28;20108;-77
2022/12/19 06:31:15;;;;;;;129.13;62.42;;;-1.20;99.90;;;;;;5038950;28;20058;-77
2022/12/19 06:33:43;;;;;;;127.97;60.67;;;-1.20;99.90;;;;;;5039456;28;20045;-79
2022/12/19 06:36:14;;;;;;;132.25;62.30;;;-1.20;99.90;;;;;;5041377;28;20115;-80
2022/12/19 06:38:41;;;;;;;119.07;56.28;;;-1.20;99.90;;;;;;5037265;28;20073;-77
2022/12/19 06:44:08;;;;;;;117.45;53.97;;;-1.20;99.90;;;;;;4975818;28;20046;-78
2022/12/19 06:46:36;;;;;;;120.10;52.70;;;-1.10;99.90;;;;;;5022648;28;20441;-79
2022/12/19 06:49:03;;;;;;;108.97;50.63;;;-1.10;99.90;;;;;;5040079;28;20295;-78
2022/12/19 06:51:32;;;;;;;96.13;45.83;;;-1.10;99.90;;;;;;5037902;28;20126;-78
2022/12/19 06:54:02;;;;;;;97.57;46.15;;;-1.20;99.90;;;;;;5038615;28;20123;-80
2022/12/19 06:56:34;;;;;;;98.72;48.85;;;-1.20;99.90;;;;;;5040053;28;20060;-78
2022/12/19 06:59:02;;;;;;;101.47;49.33;;;-1.30;99.90;;;;;;5043309;28;20033;-79
2022/12/19 07:01:44;;;;;;;106.18;52.47;;;-1.20;99.90;;;;;;5042263;28;20069;-78
2022/12/19 07:04:15;;;;;;;103.13;50.25;;;-1.20;99.90;;;;;;5040904;28;20488;-77
2022/12/19 07:06:43;;;;;;;110.88;54.22;;;-1.10;99.90;;;;;;5042345;28;20103;-79
2022/12/19 07:09:11;;;;;;;124.55;58.38;;;-1.00;99.90;;;;;;5042197;28;20046;-79
2022/12/19 07:11:38;;;;;;;166.60;72.45;;;-1.00;99.90;;;;;;5041569;28;20068;-77
2022/12/19 07:14:05;;;;;;;161.75;72.55;;;-0.90;99.90;;;;;;5040997;28;20064;-78
2022/12/19 07:16:32;;;;;;;152.15;66.13;;;-0.90;99.90;;;;;;5042135;28;20196;-79
2022/12/19 07:18:59;;;;;;;129.88;60.97;;;-0.70;99.90;;;;;;5042000;28;20071;-77
2022/12/19 07:21:27;;;;;;;145.50;68.32;;;-0.70;99.90;;;;;;5039318;28;20091;-80
2022/12/19 07:23:56;;;;;;;116.68;57.75;;;-0.60;99.90;;;;;;5042119;28;20033;-78
2022/12/19 07:26:23;;;;;;;121.93;65.43;;;-0.60;99.90;;;;;;5040955;28;20432;-78
2022/12/19 07:28:50;;;;;;;129.60;68.07;;;-0.60;99.90;;;;;;5041242;28;20048;-78
2022/12/19 07:31:17;;;;;;;140.05;70.00;;;-0.60;99.90;;;;;;5042655;28;20041;-79
2022/12/19 07:33:45;;;;;;;131.98;68.53;;;-0.50;99.90;;;;;;5042463;28;20052;-79
2022/12/19 07:36:12;;;;;;;117.38;62.72;;;-0.30;99.90;;;;;;5039506;28;20135;-80
2022/12/19 07:38:39;;;;;;;119.38;60.55;;;-0.20;99.90;;;;;;5046339;28;20112;-79
2022/12/19 07:41:08;;;;;;;119.07;58.30;;;-0.10;99.90;;;;;;5045446;28;20452;-80
2022/12/19 07:43:35;;;;;;;117.20;56.95;;;-0.10;99.90;;;;;;5042361;28;20108;-78
2022/12/19 07:46:02;;;;;;;112.50;57.45;;;-0.10;99.90;;;;;;5039789;28;20095;-80
2022/12/19 07:48:32;;;;;;;124.95;61.92;;;0.10;99.90;;;;;;5041115;28;20045;-80
2022/12/19 07:51:04;;;;;;;108.63;57.20;;;0.10;99.90;;;;;;5046526;28;20137;-78
2022/12/19 07:53:31;;;;;;;105.63;57.10;;;0.10;99.90;;;;;;5042038;28;20571;-80
2022/12/19 07:55:59;;;;;;;104.47;57.15;;;0.20;99.90;;;;;;5042972;28;20068;-78
2022/12/19 07:58:27;;;;;;;108.70;57.22;;;0.20;99.90;;;;;;5042848;28;20045;-77
2022/12/19 08:00:55;;;;;;;119.55;60.75;;;0.20;99.90;;;;;;5040970;28;20500;-80
2022/12/19 08:03:25;;;;;;;113.03;57.85;;;0.30;99.90;;;;;;5048979;22;20100;-75
2022/12/19 08:05:52;;;;;;;128.45;62.53;;;0.40;99.90;;;;;;5015486;28;20084;-76
2022/12/19 08:08:20;;;;;;;116.93;60.75;;;0.40;99.90;;;;;;5015519;28;20068;-74
2022/12/19 08:10:47;;;;;;;109.25;56.47;;;0.60;99.90;;;;;;5015424;28;20105;-73
2022/12/19 08:13:14;;;;;;;130.68;64.10;;;0.60;99.90;;;;;;5016930;28;20189;-73
2022/12/19 08:15:43;;;;;;;158.23;79.88;;;0.40;99.90;;;;;;5017992;28;20050;-75
2022/12/19 08:18:11;;;;;;;151.45;81.15;;;0.50;99.90;;;;;;5015621;28;20042;-75
2022/12/19 08:20:38;;;;;;;176.73;92.55;;;0.70;99.90;;;;;;5017132;28;20064;-73
2022/12/19 08:23:06;;;;;;;187.98;96.00;;;0.70;99.90;;;;;;5024741;28;20042;-74
2022/12/19 08:25:33;;;;;;;176.60;93.10;;;0.70;99.90;;;;;;5011541;28;20096;-73
2022/12/19 08:28:01;;;;;;;172.32;93.90;;;0.80;99.90;;;;;;5012489;28;20092;-76
2022/12/19 08:30:28;;;;;;;133.93;72.85;;;0.90;99.90;;;;;;5013030;28;20041;-73
2022/12/19 08:32:57;;;;;;;139.65;77.50;;;1.10;99.90;;;;;;5013852;28;20128;-77
2022/12/19 08:35:24;;;;;;;147.43;81.22;;;1.10;99.90;;;;;;5013310;28;20052;-74
2022/12/19 08:37:51;;;;;;;141.70;75.90;;;1.30;99.90;;;;;;5012146;28;20112;-77
2022/12/19 08:40:19;;;;;;;110.07;61.00;;;1.60;99.90;;;;;;5012399;28;20042;-79
2022/12/19 08:42:46;;;;;;;124.28;66.93;;;1.90;99.90;;;;;;5014757;28;20042;-80
2022/12/19 08:45:13;;;;;;;131.63;68.35;;;1.90;99.90;;;;;;5012526;28;20054;-79
2022/12/19 08:47:40;;;;;;;102.88;56.85;;;2.10;99.90;;;;;;5012371;28;20118;-78
2022/12/19 08:50:10;;;;;;;108.43;58.53;;;1.90;99.90;;;;;;5013159;28;20042;-75
2022/12/19 08:52:37;;;;;;;113.97;60.08;;;1.80;99.90;;;;;;5012743;28;20038;-76
2022/12/19 08:55:06;;;;;;;115.65;64.38;;;1.90;99.90;;;;;;5012182;28;20512;-74
2022/12/19 08:57:33;;;;;;;119.32;67.43;;;2.00;99.90;;;;;;5011515;28;20060;-80
2022/12/19 09:00:00;;;;;;;151.98;82.60;;;2.20;99.90;;;;;;5020716;28;20034;-75
2022/12/19 09:02:29;;;;;;;136.90;75.65;;;2.50;99.90;;;;;;5021715;28;20038;-76
2022/12/19 09:04:56;;;;;;;128.80;66.97;;;2.70;99.90;;;;;;5013137;28;20111;-79
2022/12/19 09:07:25;;;;;;;117.50;61.88;;;2.70;99.90;;;;;;5011876;28;20042;-76
2022/12/19 09:09:52;;;;;;;110.05;61.65;;;2.60;99.90;;;;;;5016916;28;20045;-75
2022/12/19 09:12:20;;;;;;;105.15;58.85;;;2.80;99.90;;;;;;5027112;28;20038;-76
2022/12/19 09:14:47;;;;;;;88.50;51.80;;;2.80;99.90;;;;;;5015839;28;20069;-76
2022/12/19 09:17:14;;;;;;;93.00;52.47;;;3.00;99.90;;;;;;5011081;28;20129;-77
2022/12/19 09:19:42;;;;;;;92.97;52.30;;;3.00;1.00;;;;;;5016316;28;20034;-77
2022/12/19 09:22:11;;;;;;;92.78;53.60;;;3.20;1.00;;;;;;5012993;28;20496;-77
2022/12/19 09:27:23;;;;;;;79.50;46.13;;;3.60;1.00;;;;;;5187953;22;20069;-78
2022/12/19 09:29:50;;;;;;;75.82;44.72;;;3.60;1.00;;;;;;5034404;28;20028;-76
2022/12/19 09:32:17;;;;;;;82.30;49.38;;;3.70;1.00;;;;;;5028232;28;20112;-78
2022/12/19 09:34:45;;;;;;;89.22;50.83;;;4.00;1.00;;;;;;5014609;28;20064;-77
2022/12/19 09:37:16;;;;;;;82.05;49.58;;;4.10;1.00;;;;;;5022480;28;20041;-76
2022/12/19 09:39:44;;;;;;;65.78;41.55;;;4.20;1.00;;;;;;5025860;28;20037;-75
2022/12/19 09:42:38;;;;;;;74.63;44.53;;;4.10;1.00;;;;;;5025337;28;20045;-76
2022/12/19 09:45:33;;;;;;;76.05;42.42;;;3.80;1.00;;;;;;5029130;28;20144;-78
2022/12/19 09:48:02;;;;;;;76.32;44.53;;;3.80;1.00;;;;;;5029677;28;20071;-78
2022/12/19 09:50:36;;;;;;;77.35;44.83;;;3.20;1.00;;;;;;5026975;28;20508;-75
2022/12/19 09:53:07;;;;;;;70.82;41.78;;;3.30;1.00;;;;;;5040720;28;20096;-75
2022/12/19 09:55:37;;;;;;;70.88;42.58;;;3.50;1.00;;;;;;5034102;28;20101;-76
2022/12/19 09:58:11;;;;;;;71.25;39.03;;;3.60;1.00;;;;;;5023738;28;20068;-75
2022/12/19 10:00:46;;;;;;;71.85;42.55;;;3.60;1.00;;;;;;5034423;28;20053;-76
2022/12/19 10:03:21;;;;;;;81.85;45.08;;;3.50;1.00;;;;;;5029211;28;20550;-77
2022/12/19 10:05:53;;;;;;;67.28;41.42;;;3.30;1.00;;;;;;5011769;28;20432;-74
2022/12/19 10:08:25;;;;;;;70.30;41.50;;;3.30;1.00;;;;;;5039880;28;20141;-75
2022/12/19 10:11:06;;;;;;;71.65;42.10;;;3.30;1.00;;;;;;5044569;28;20034;-76
2022/12/19 10:13:49;;;;;;;74.85;42.53;;;3.40;1.00;;;;;;5043153;28;20038;-74
2022/12/19 10:16:26;;;;;;;80.20;43.05;;;3.60;1.00;;;;;;5042953;28;20060;-76
2022/12/19 10:18:56;;;;;;;72.13;40.65;;;3.60;1.00;;;;;;5044694;28;20053;-74
2022/12/19 10:21:32;;;;;;;58.92;34.83;;;3.80;1.00;;;;;;5048656;28;20048;-77
2022/12/19 10:24:31;;;;;;;68.95;39.03;;;3.90;1.00;;;;;;5049008;28;20057;-76
2022/12/19 10:27:00;;;;;;;61.67;35.63;;;4.00;1.00;;;;;;5028819;28;20084;-76
2022/12/19 10:29:46;;;;;;;63.20;37.42;;;4.20;1.00;;;;;;5040543;28;20088;-76
2022/12/19 10:32:25;;;;;;;60.30;37.20;;;4.30;1.00;;;;;;5033829;28;20079;-76
2022/12/19 10:34:53;;;;;;;70.88;40.15;;;4.10;1.00;;;;;;5034455;28;20037;-78
2022/12/19 10:37:25;;;;;;;67.13;38.65;;;4.20;1.00;;;;;;5034864;28;20069;-77
2022/12/19 10:40:03;;;;;;;75.90;42.38;;;4.30;1.00;;;;;;5035305;28;20046;-76
2022/12/19 10:42:44;;;;;;;69.88;41.50;;;4.30;1.00;;;;;;5035062;28;20055;-77
2022/12/19 10:45:14;;;;;;;60.10;33.42;;;4.40;99.90;;;;;;5033983;28;20049;-76
2022/12/19 10:47:43;;;;;;;63.58;37.17;;;4.50;1.00;;;;;;5032698;28;20141;-78
2022/12/19 10:50:22;;;;;;;60.58;34.67;;;4.60;1.00;;;;;;5035702;28;20072;-76
2022/12/19 10:52:53;;;;;;;60.67;34.70;;;4.40;6.30;;;;;;5041204;28;20118;-76
2022/12/19 10:55:42;;;;;;;62.60;36.03;;;4.30;1.00;;;;;;5018652;28;20045;-74
2022/12/19 10:58:32;;;;;;;48.05;29.75;;;4.40;1.00;;;;;;5042984;28;20064;-76
2022/12/19 11:01:11;;;;;;;48.25;29.38;;;4.50;1.00;;;;;;5038412;28;20033;-74
2022/12/19 11:03:42;;;;;;;53.15;32.03;;;4.40;91.30;;;;;;5036786;28;20046;-76
2022/12/19 11:06:41;;;;;;;46.63;29.17;;;4.50;1.00;;;;;;5032800;28;20397;-75
2022/12/19 11:09:26;;;;;;;54.20;32.38;;;4.60;1.00;;;;;;5033068;28;20065;-75
2022/12/19 11:12:10;;;;;;;54.53;31.00;;;4.70;1.00;;;;;;5032084;28;20041;-75
2022/12/19 11:14:40;;;;;;;51.10;32.15;;;4.80;1.00;;;;;;5030838;28;20059;-75
2022/12/19 11:17:25;;;;;;;56.55;33.00;;;4.80;1.00;;;;;;5033136;28;20045;-75
2022/12/19 11:19:57;;;;;;;58.95;35.13;;;4.90;1.00;;;;;;5034234;28;20101;-76
2022/12/19 11:22:27;;;;;;;52.60;30.45;;;5.00;1.00;;;;;;5033892;28;20144;-75
2022/12/19 11:24:55;;;;;;;54.05;32.42;;;5.00;1.00;;;;;;5043582;28;20042;-77
2022/12/19 11:27:38;;;;;;;64.40;36.63;;;5.20;1.00;;;;;;5040757;28;20068;-75
2022/12/19 11:30:19;;;;;;;56.97;36.15;;;5.30;1.00;;;;;;5033384;28;20041;-76
2022/12/19 11:32:50;;;;;;;62.08;36.25;;;5.50;1.00;;;;;;5032680;28;20121;-74
2022/12/19 11:35:26;;;;;;;61.65;35.80;;;5.60;1.00;;;;;;5033217;28;20037;-75
2022/12/19 11:37:56;;;;;;;58.78;35.45;;;5.60;1.00;;;;;;5033821;28;20041;-74
2022/12/19 11:40:33;;;;;;;62.97;38.20;;;5.50;98.60;;;;;;5047603;28;20036;-75
2022/12/19 11:43:06;;;;;;;61.03;37.10;;;5.30;1.00;;;;;;5041646;28;20459;-75
2022/12/19 11:45:44;;;;;;;65.25;39.15;;;5.40;99.90;;;;;;5032863;28;20099;-75
2022/12/19 11:48:16;;;;;;;62.38;36.58;;;5.40;99.90;;;;;;5033083;28;20488;-76
2022/12/19 11:50:59;;;;;;;61.78;37.90;;;5.30;1.00;;;;;;5031641;28;20100;-75
2022/12/19 11:53:30;;;;;;;61.90;37.38;;;5.50;1.00;;;;;;5031639;28;20045;-75
2022/12/19 11:56:01;;;;;;;58.92;35.70;;;5.60;1.00;;;;;;5031626;28;20045;-74
2022/12/19 11:58:29;;;;;;;62.53;36.15;;;5.60;1.00;;;;;;5030039;28;20069;-75
2022/12/19 12:01:09;;;;;;;54.33;33.05;;;5.60;1.00;;;;;;5034789;28;20041;-74
2022/12/19 12:04:10;;;;;;;55.28;33.22;;;5.70;1.00;;;;;;5035284;28;20144;-74
2022/12/19 12:06:45;;;;;;;57.75;34.17;;;5.60;1.00;;;;;;5033395;28;20476;-75
2022/12/19 12:09:18;;;;;;;58.33;33.97;;;5.70;1.00;;;;;;5033808;28;20056;-74
2022/12/19 12:11:50;;;;;;;54.22;32.10;;;5.60;99.90;;;;;;5037336;28;20053;-74
2022/12/19 12:14:21;;;;;;;60.50;34.92;;;5.50;1.00;;;;;;5014649;28;20049;-74
2022/12/19 12:17:02;;;;;;;93.95;55.17;;;5.60;1.00;;;;;;5036303;28;20362;-75
2022/12/19 12:19:47;;;;;;;107.70;59.97;;;5.60;1.00;;;;;;5018935;28;20216;-75
2022/12/19 12:22:36;;;;;;;106.53;61.33;;;5.70;1.00;;;;;;5034846;28;20046;-74
2022/12/19 12:25:16;;;;;;;95.15;57.15;;;5.90;1.00;;;;;;5042267;28;20038;-76
2022/12/19 12:27:50;;;;;;;102.55;58.58;;;6.00;1.00;;;;;;5038915;28;20049;-74
2022/12/19 12:30:20;;;;;;;109.40;61.63;;;6.00;75.50;;;;;;5039993;28;20045;-75
2022/12/19 12:33:00;;;;;;;112.60;62.28;;;5.90;1.00;;;;;;5035755;28;20046;-74
2022/12/19 12:35:36;;;;;;;109.07;61.75;;;5.80;1.00;;;;;;5039450;28;20033;-75
2022/12/19 12:38:27;;;;;;;113.50;65.32;;;5.50;99.90;;;;;;5042863;28;20041;-74
2022/12/19 12:41:10;;;;;;;115.93;64.30;;;5.20;99.90;;;;;;5032994;28;20045;-75
2022/12/19 12:43:56;;;;;;;123.60;66.35;;;5.00;99.90;;;;;;5031837;28;20556;-75
2022/12/19 12:46:28;;;;;;;119.45;65.80;;;4.70;99.90;;;;;;5032632;28;20045;-76
2022/12/19 12:49:00;;;;;;;121.82;69.53;;;4.50;99.90;;;;;;5035658;28;20484;-74
2022/12/19 12:51:28;;;;;;;123.20;67.95;;;4.30;99.90;;;;;;5050391;28;20057;-73
2022/12/19 12:54:03;;;;;;;127.00;71.72;;;4.20;99.90;;;;;;5048240;28;20084;-74